Time;durP1;ratioP1;P1;durP2;ratioP2;P2;SDS_P1;SDS_P2;PMS_P1;PMS_P2;Temp;Humidity;BMP_temperature;BMP_pressure;BME280_temperature;BME280_humidity;BME280_pressure;Samples;Min_cycle;Max_cycle;Signal;HPM_P1;HPM_P2
2022/09/18 00:01:30;;;;;;;0.00;0.00;;;;;;;10.93;100.00;101531.22;5067370;28;20462;-75
2022/09/18 00:03:57;;;;;;;0.10;0.10;;;;;;;10.90;100.00;101523.38;5064221;28;20163;-72
2022/09/18 00:06:25;;;;;;;0.20;0.20;;;;;;;10.86;100.00;101516.50;5075103;28;20078;-72
2022/09/18 00:08:52;;;;;;;0.10;0.10;;;;;;;10.93;100.00;101523.19;5060158;28;20020;-72
2022/09/18 00:11:18;;;;;;;0.10;0.10;;;;;;;10.88;100.00;101514.56;5054002;28;20737;-73
2022/09/18 00:13:44;;;;;;;0.10;0.10;;;;;;;10.93;100.00;101515.97;5064757;28;20024;-72
2022/09/18 00:16:11;;;;;;;0.10;0.10;;;;;;;10.79;100.00;101492.72;5055986;28;20023;-73
2022/09/18 00:18:37;;;;;;;0.00;0.00;;;;;;;10.88;100.00;101509.19;5058971;28;22070;-72
2022/09/18 00:21:14;;;;;;;0.00;0.00;;;;;;;10.93;100.00;101520.50;5066173;28;22245;-72
2022/09/18 00:23:39;;;;;;;0.03;0.03;;;;;;;11.03;100.00;101520.72;5070271;28;20028;-71
2022/09/18 00:26:06;;;;;;;0.10;0.10;;;;;;;11.04;100.00;101517.91;5050991;28;20046;-72
2022/09/18 00:28:32;;;;;;;0.10;0.10;;;;;;;11.04;100.00;101517.91;5059132;28;20036;-71
2022/09/18 00:31:12;;;;;;;0.10;0.10;;;;;;;10.98;100.00;101526.41;5055295;28;20042;-75
2022/09/18 00:33:38;;;;;;;0.10;0.10;;;;;;;11.00;100.00;101512.84;5054470;28;20101;-72
2022/09/18 00:36:06;;;;;;;0.10;0.10;;;;;;;11.01;100.00;101509.22;5052309;28;20157;-71
2022/09/18 00:38:32;;;;;;;0.10;0.10;;;;;;;10.95;100.00;101515.88;5059454;28;20024;-73
2022/09/18 00:40:59;;;;;;;0.10;0.10;;;;;;;10.99;100.00;101517.34;5058252;28;20024;-72
2022/09/18 00:43:28;;;;;;;0.10;0.10;;;;;;;11.02;100.00;101501.03;5058472;28;20046;-74
2022/09/18 00:46:00;;;;;;;0.10;0.10;;;;;;;10.88;100.00;101512.72;5057673;28;20124;-71
2022/09/18 00:48:51;;;;;;;0.10;0.10;;;;;;;10.92;100.00;101516.09;5066073;28;20035;-72
2022/09/18 00:51:17;;;;;;;0.03;0.03;;;;;;;10.94;100.00;101520.38;5058600;28;20052;-72
2022/09/18 00:53:47;;;;;;;0.10;0.10;;;;;;;11.00;100.00;101520.91;5062962;28;20078;-72
2022/09/18 00:56:14;;;;;;;0.10;0.10;;;;;;;11.03;100.00;101524.25;5059462;28;20024;-73
2022/09/18 00:58:41;;;;;;;0.10;0.10;;;;;;;10.91;100.00;101504.47;5064704;28;20493;-73
2022/09/18 01:01:07;;;;;;;0.10;0.10;;;;;;;10.92;100.00;101511.56;5062598;28;20057;-75
2022/09/18 01:03:34;;;;;;;0.10;0.10;;;;;;;10.97;100.00;101521.13;5065661;28;20032;-73
2022/09/18 01:06:09;;;;;;;0.00;0.00;;;;;;;11.07;100.00;101536.50;5060334;28;20034;-72
2022/09/18 01:08:36;;;;;;;0.10;0.10;;;;;;;11.00;100.00;101527.13;5065100;28;20382;-74
2022/09/18 01:11:33;;;;;;;0.10;0.10;;;;;;;10.97;100.00;101524.69;5068068;28;20024;-75
2022/09/18 01:14:33;;;;;;;0.10;0.10;;;;;;;10.94;100.00;101527.59;5063853;28;20564;-74
2022/09/18 01:17:07;;;;;;;0.10;0.10;;;;;;;10.95;100.00;101522.09;5068935;28;20066;-75
2022/09/18 01:19:57;;;;;;;0.10;0.10;;;;;;;10.97;100.00;101521.13;5063060;28;20028;-75
2022/09/18 01:22:25;;;;;;;0.10;0.10;;;;;;;10.98;100.00;101517.47;5060158;28;20035;-74
2022/09/18 01:25:16;;;;;;;0.10;0.10;;;;;;;10.94;100.00;101515.00;5068355;28;20063;-74
2022/09/18 01:27:50;;;;;;;0.00;0.00;;;;;;;10.97;100.00;101518.44;5067002;28;20035;-75
2022/09/18 01:30:16;;;;;;;0.05;0.05;;;;;;;10.90;100.00;101515.31;5064147;28;20070;-74
2022/09/18 01:32:56;;;;;;;0.00;0.00;;;;;;;10.98;100.00;101521.03;5057339;28;20021;-76
2022/09/18 01:35:42;;;;;;;0.08;0.08;;;;;;;11.10;100.00;101530.94;5046388;28;20063;-74
2022/09/18 01:38:13;;;;;;;0.03;0.03;;;;;;;11.05;100.00;101527.69;5049215;28;20035;-73
2022/09/18 01:40:43;;;;;;;0.10;0.10;;;;;;;11.06;100.00;101528.56;5059727;28;20032;-74
2022/09/18 01:43:10;;;;;;;0.10;0.10;;;;;;;11.06;100.00;101524.03;5065171;28;20111;-73
2022/09/18 01:45:41;;;;;;;0.10;0.10;;;;;;;11.04;100.00;101520.59;5057766;28;20068;-75
2022/09/18 01:48:07;;;;;;;0.10;0.10;;;;;;;11.07;100.00;101515.00;5069392;28;20042;-74
2022/09/18 01:50:39;;;;;;;0.10;0.10;;;;;;;11.05;100.00;101516.09;5058304;28;20028;-74
2022/09/18 01:53:20;;;;;;;0.10;0.10;;;;;;;10.83;100.00;101468.34;5059402;28;20038;-74
2022/09/18 01:55:51;;;;;;;0.10;0.10;;;;;;;10.98;100.00;101504.91;5059360;28;20055;-74
2022/09/18 01:58:18;;;;;;;0.10;0.10;;;;;;;11.02;100.00;101505.56;5062916;28;20052;-73
2022/09/18 02:00:48;;;;;;;0.10;0.10;;;;;;;11.05;100.00;101505.34;5058149;28;20024;-74
2022/09/18 02:03:18;;;;;;;0.10;0.10;;;;;;;10.92;100.00;101481.16;5059702;28;20035;-75
2022/09/18 02:05:56;;;;;;;0.10;0.10;;;;;;;11.03;100.00;101516.19;5059686;28;20114;-74
2022/09/18 02:08:37;;;;;;;0.10;0.10;;;;;;;10.96;100.00;101512.22;5061437;28;20150;-75
2022/09/18 02:11:08;;;;;;;0.05;0.05;;;;;;;10.95;100.00;101510.50;5059193;28;20039;-75
2022/09/18 02:13:44;;;;;;;0.10;0.10;;;;;;;10.88;100.00;101511.88;5065316;28;20024;-74
2022/09/18 02:16:15;;;;;;;0.00;0.00;;;;;;;10.88;100.00;101501.13;5069487;28;20028;-76
2022/09/18 02:18:44;;;;;;;0.10;0.10;;;;;;;10.85;100.00;101494.16;5081869;28;20036;-73
2022/09/18 02:21:12;;;;;;;0.10;0.10;;;;;;;10.80;100.00;101488.22;5064067;28;20020;-73
2022/09/18 02:23:38;;;;;;;0.00;0.00;;;;;;;10.75;100.00;101496.59;5061411;28;20039;-75
2022/09/18 02:26:06;;;;;;;0.10;0.10;;;;;;;10.76;100.00;101506.38;5057566;28;20024;-73
2022/09/18 02:28:32;;;;;;;0.10;0.10;;;;;;;10.82;100.00;101496.16;5066233;28;20119;-75
2022/09/18 02:30:57;;;;;;;0.10;0.10;;;;;;;10.63;100.00;101459.84;5053473;28;20436;-75
2022/09/18 02:33:27;;;;;;;0.10;0.10;;;;;;;10.77;100.00;101491.97;5055133;28;20458;-73
2022/09/18 02:36:04;;;;;;;0.10;0.10;;;;;;;10.76;100.00;101486.72;5055304;28;20025;-73
2022/09/18 02:38:35;;;;;;;0.05;0.05;;;;;;;10.75;100.00;101483.16;5059917;28;20024;-74
2022/09/18 02:41:19;;;;;;;0.00;0.00;;;;;;;10.83;100.00;101487.16;5054449;28;20050;-74
2022/09/18 02:43:59;;;;;;;0.03;0.03;;;;;;;10.80;100.00;101481.03;5059361;28;20036;-73
2022/09/18 02:46:46;;;;;;;0.10;0.10;;;;;;;10.83;100.00;101479.97;5054759;28;20079;-73
2022/09/18 02:49:32;;;;;;;0.10;0.10;;;;;;;10.83;100.00;101485.34;5052119;28;21742;-73
2022/09/18 02:52:15;;;;;;;0.10;0.10;;;;;;;10.91;100.00;101482.97;5057001;28;20147;-73
2022/09/18 02:54:45;;;;;;;0.10;0.10;;;;;;;10.95;100.00;101489.00;5054321;28;20035;-73
2022/09/18 02:57:17;;;;;;;0.00;0.00;;;;;;;10.82;100.00;101490.78;5058191;28;20039;-72
2022/09/18 02:59:48;;;;;;;0.00;0.00;;;;;;;10.73;100.00;101462.75;5056093;28;20473;-75
2022/09/18 03:02:13;;;;;;;0.10;0.10;;;;;;;10.78;100.00;101466.00;5050808;28;20027;-73
2022/09/18 03:04:39;;;;;;;0.10;0.10;;;;;;;10.75;100.00;101476.94;5056035;28;20187;-75
2022/09/18 03:07:04;;;;;;;0.10;0.10;;;;;;;10.79;100.00;101486.50;5058301;28;20032;-75
2022/09/18 03:09:31;;;;;;;0.10;0.10;;;;;;;10.82;100.00;101480.06;5054167;28;20040;-74
2022/09/18 03:11:57;;;;;;;0.10;0.10;;;;;;;10.82;100.00;101486.31;5055201;28;20070;-74
2022/09/18 03:14:22;;;;;;;0.05;0.05;;;;;;;10.83;100.00;101479.09;5052291;28;20028;-74
2022/09/18 03:16:47;;;;;;;0.10;0.10;;;;;;;10.90;100.00;101480.41;5058052;28;20032;-73
2022/09/18 03:19:13;;;;;;;0.10;0.10;;;;;;;10.84;100.00;101481.69;5055436;28;20595;-74
2022/09/18 03:21:39;;;;;;;0.10;0.10;;;;;;;10.85;100.00;101474.47;5054461;28;20047;-74
2022/09/18 03:24:05;;;;;;;0.10;0.10;;;;;;;10.66;100.00;101459.63;5053504;28;20032;-74
2022/09/18 03:26:30;;;;;;;0.10;0.10;;;;;;;10.80;100.00;101464.06;5055012;28;20032;-73
2022/09/18 03:28:55;;;;;;;0.10;0.10;;;;;;;10.75;100.00;101463.50;5059620;28;20064;-73
2022/09/18 03:31:21;;;;;;;0.10;0.10;;;;;;;10.84;100.00;101464.69;5051678;28;20097;-73
2022/09/18 03:33:46;;;;;;;0.10;0.10;;;;;;;10.79;100.00;101448.91;5051468;28;20077;-74
2022/09/18 03:36:11;;;;;;;0.10;0.10;;;;;;;10.85;100.00;101459.22;5053561;28;20028;-73
2022/09/18 03:38:37;;;;;;;0.10;0.10;;;;;;;10.84;100.00;101459.31;5058142;28;20614;-73
2022/09/18 03:41:03;;;;;;;0.10;0.10;;;;;;;10.73;100.00;101427.84;5054236;28;20029;-73
2022/09/18 03:43:28;;;;;;;0.10;0.10;;;;;;;10.77;100.00;101445.47;5052706;28;20070;-73
2022/09/18 03:45:53;;;;;;;0.10;0.10;;;;;;;10.84;100.00;101453.94;5057010;28;20032;-74
2022/09/18 03:48:19;;;;;;;0.10;0.10;;;;;;;10.85;100.00;101463.72;5061491;28;20556;-73
2022/09/18 03:50:46;;;;;;;0.10;0.10;;;;;;;10.93;100.00;101458.69;5053025;28;20028;-73
2022/09/18 03:53:12;;;;;;;0.10;0.10;;;;;;;10.86;100.00;101458.22;5057260;28;20024;-73
2022/09/18 03:55:37;;;;;;;0.00;0.00;;;;;;;10.85;100.00;101453.88;5056224;28;20039;-73
2022/09/18 03:58:02;;;;;;;0.10;0.10;;;;;;;10.75;100.00;101450.91;5062304;28;20044;-73
2022/09/18 04:00:28;;;;;;;0.10;0.10;;;;;;;10.80;100.00;101442.56;5055045;28;20346;-74
2022/09/18 04:02:53;;;;;;;0.10;0.10;;;;;;;10.83;100.00;101454.91;5056105;28;20174;-74
2022/09/18 04:05:18;;;;;;;0.10;0.10;;;;;;;10.55;100.00;101405.78;5055153;28;20074;-73
2022/09/18 04:07:44;;;;;;;0.10;0.10;;;;;;;10.83;100.00;101452.22;5058135;28;20421;-73
2022/09/18 04:10:09;;;;;;;0.10;0.10;;;;;;;10.92;100.00;101465.03;5056202;28;20715;-73
2022/09/18 04:12:34;;;;;;;0.00;0.00;;;;;;;10.92;100.00;101460.50;5078332;28;20333;-74
2022/09/18 04:15:00;;;;;;;0.10;0.10;;;;;;;10.82;100.00;101455.88;5058166;28;20040;-73
2022/09/18 04:17:25;;;;;;;0.00;0.00;;;;;;;10.85;100.00;101458.34;5060423;28;20472;-74
2022/09/18 04:19:51;;;;;;;0.10;0.10;;;;;;;10.86;100.00;101458.22;5066648;28;20111;-75
2022/09/18 04:22:16;;;;;;;0.10;0.10;;;;;;;10.93;100.00;101464.91;5058506;28;20024;-74
2022/09/18 04:24:41;;;;;;;0.10;0.10;;;;;;;10.92;100.00;101452.44;5061013;28;20147;-76
2022/09/18 04:27:07;;;;;;;0.10;0.10;;;;;;;10.94;100.00;101452.34;5070968;28;20034;-73
2022/09/18 04:29:32;;;;;;;0.10;0.10;;;;;;;10.82;100.00;101446.00;5059175;28;20024;-75
2022/09/18 04:31:58;;;;;;;0.10;0.10;;;;;;;10.89;100.00;101447.28;5060108;28;21104;-76
2022/09/18 04:34:23;;;;;;;0.00;0.00;;;;;;;10.72;100.00;101426.13;5058314;28;20288;-76
2022/09/18 04:36:48;;;;;;;0.00;0.00;;;;;;;10.99;100.00;101452.03;5063285;28;20043;-75
2022/09/18 04:39:14;;;;;;;0.05;0.05;;;;;;;10.93;100.00;101450.63;5059236;28;20028;-76
2022/09/18 04:41:39;;;;;;;0.10;0.10;;;;;;;10.79;100.00;101430.09;5060603;28;20032;-75
2022/09/18 04:44:05;;;;;;;0.10;0.10;;;;;;;10.73;100.00;101415.25;5057333;28;20028;-75
2022/09/18 04:46:30;;;;;;;0.10;0.10;;;;;;;10.91;100.00;101455.25;5061840;28;20028;-75
2022/09/18 04:48:55;;;;;;;0.10;0.10;;;;;;;10.87;100.00;101446.53;5058311;28;20088;-74
2022/09/18 04:51:20;;;;;;;0.10;0.10;;;;;;;10.74;100.00;101434.94;5060047;28;20020;-76
2022/09/18 04:53:46;;;;;;;0.10;0.10;;;;;;;10.88;100.00;101447.41;5058474;28;20028;-75
2022/09/18 04:56:11;;;;;;;0.10;0.10;;;;;;;10.84;100.00;101436.03;5058579;28;20602;-74
2022/09/18 04:58:37;;;;;;;0.10;0.10;;;;;;;10.88;100.00;101442.88;5061245;28;20110;-75
2022/09/18 05:01:02;;;;;;;0.08;0.08;;;;;;;10.88;100.00;101442.88;5060839;28;20028;-74
2022/09/18 05:03:28;;;;;;;0.10;0.10;;;;;;;10.86;100.00;101438.59;5063285;28;20052;-75
2022/09/18 05:05:54;;;;;;;0.00;0.00;;;;;;;10.84;100.00;101438.72;5061790;28;20028;-74
2022/09/18 05:08:20;;;;;;;0.10;0.10;;;;;;;10.82;100.00;101420.97;5068066;28;20040;-74
2022/09/18 05:10:45;;;;;;;0.20;0.20;;;;;;;10.91;100.00;101431.06;5062269;28;20169;-74
2022/09/18 05:13:10;;;;;;;0.10;0.10;;;;;;;10.68;100.00;101397.75;5062437;28;20466;-74
2022/09/18 05:15:36;;;;;;;0.10;0.10;;;;;;;10.87;100.00;101443.84;5059109;28;21589;-74
2022/09/18 05:18:03;;;;;;;0.10;0.10;;;;;;;10.89;100.00;101444.59;5064995;28;20024;-75
2022/09/18 05:20:29;;;;;;;0.10;0.10;;;;;;;10.94;100.00;101449.66;5059105;28;20463;-74
2022/09/18 05:22:55;;;;;;;0.10;0.10;;;;;;;10.90;100.00;101456.22;5062755;28;20531;-75
2022/09/18 05:25:22;;;;;;;0.05;0.05;;;;;;;10.92;100.00;101455.13;5063907;28;22146;-75
2022/09/18 05:27:54;;;;;;;0.10;0.10;;;;;;;11.00;100.00;101453.75;5069363;28;20035;-73
2022/09/18 05:30:20;;;;;;;0.00;0.00;;;;;;;11.01;100.00;101447.41;5059937;28;20024;-74
2022/09/18 05:33:02;;;;;;;0.05;0.05;;;;;;;11.02;100.00;101451.81;5061971;28;20043;-75
2022/09/18 05:35:29;;;;;;;0.00;0.00;;;;;;;11.00;100.00;101454.59;5059060;28;20417;-74
2022/09/18 05:37:54;;;;;;;0.13;0.13;;;;;;;11.05;100.00;101449.75;5061715;28;22575;-74
2022/09/18 05:40:25;;;;;;;0.05;0.05;;;;;;;11.08;100.00;101446.84;5058008;28;20035;-75
2022/09/18 05:42:53;;;;;;;0.10;0.10;;;;;;;11.07;100.00;101449.66;5057247;28;20645;-74
2022/09/18 05:45:20;;;;;;;0.10;0.10;;;;;;;11.07;100.00;101460.41;5057052;28;20313;-74
2022/09/18 05:47:54;;;;;;;0.10;0.10;;;;;;;11.11;100.00;101478.06;5060191;28;20055;-73
2022/09/18 05:50:20;;;;;;;0.10;0.10;;;;;;;11.11;100.00;101486.13;5056906;28;20047;-73
2022/09/18 05:52:45;;;;;;;0.10;0.10;;;;;;;10.95;100.00;101464.81;5054492;28;21004;-74
2022/09/18 05:55:10;;;;;;;0.10;0.10;;;;;;;10.98;100.00;101461.06;5056432;28;20027;-74
2022/09/18 05:57:36;;;;;;;0.10;0.10;;;;;;;10.96;100.00;101458.47;5061038;28;20542;-75
2022/09/18 06:00:01;;;;;;;0.10;0.10;;;;;;;11.05;100.00;101465.88;5056214;28;20037;-75
2022/09/18 06:02:26;;;;;;;0.10;0.10;;;;;;;11.15;100.00;101462.56;5075538;28;20035;-74
2022/09/18 06:04:52;;;;;;;0.10;0.10;;;;;;;11.04;100.00;101442.66;5077233;28;20015;-76
2022/09/18 06:07:17;;;;;;;0.10;0.10;;;;;;;11.08;100.00;101440.63;5083048;28;20054;-76
2022/09/18 06:09:43;;;;;;;0.10;0.10;;;;;;;11.11;100.00;101448.50;5082456;28;20066;-76
2022/09/18 06:12:08;;;;;;;0.00;0.00;;;;;;;11.12;100.00;101450.22;5084978;28;20024;-76
2022/09/18 06:14:33;;;;;;;0.10;0.10;;;;;;;11.05;100.00;101430.09;5079411;28;20371;-75
2022/09/18 06:16:59;;;;;;;0.10;0.10;;;;;;;11.19;100.00;101448.78;5069506;28;20048;-75
2022/09/18 06:19:24;;;;;;;0.10;0.10;;;;;;;11.25;100.00;101460.94;5057570;28;20077;-74
2022/09/18 06:21:50;;;;;;;0.10;0.10;;;;;;;11.29;100.00;101450.84;5056513;28;20430;-74
2022/09/18 06:24:15;;;;;;;0.00;0.00;;;;;;;11.30;100.00;101445.34;5062738;28;20060;-75
2022/09/18 06:26:41;;;;;;;0.05;0.05;;;;;;;11.21;100.00;101419.13;5065967;28;20036;-74
2022/09/18 06:29:06;;;;;;;0.10;0.10;;;;;;;11.30;100.00;101425.66;5059271;28;20033;-74
2022/09/18 06:31:31;;;;;;;0.10;0.10;;;;;;;11.36;100.00;101427.94;5061610;28;20033;-74
2022/09/18 06:33:57;;;;;;;0.00;0.00;;;;;;;11.43;100.00;101431.03;5056976;28;20028;-74
2022/09/18 06:36:22;;;;;;;0.10;0.10;;;;;;;11.39;100.00;101420.50;5055889;28;20157;-75
2022/09/18 06:38:50;;;;;;;0.00;0.00;;;;;;;11.42;100.00;101430.16;5057024;28;20032;-74
2022/09/18 06:41:16;;;;;;;0.03;0.03;;;;;;;11.44;100.00;101424.69;5054491;28;20827;-75
2022/09/18 06:43:41;;;;;;;0.10;0.10;;;;;;;11.58;100.00;101429.91;5057277;28;20036;-75
2022/09/18 06:46:09;;;;;;;0.10;0.10;;;;;;;11.67;100.00;101434.63;5049859;28;20031;-75
2022/09/18 06:48:34;;;;;;;0.10;0.10;;;;;;;11.75;100.00;101425.13;5058769;28;20037;-75
2022/09/18 06:51:00;;;;;;;0.00;0.00;;;;;;;11.75;100.00;101425.13;5053560;28;20059;-76
2022/09/18 06:53:25;;;;;;;0.10;0.10;;;;;;;11.67;100.00;101401.47;5052948;28;20031;-75
2022/09/18 06:55:51;;;;;;;0.10;0.10;;;;;;;11.88;100.00;101415.16;5053866;28;20685;-76
2022/09/18 06:58:17;;;;;;;0.10;0.10;;;;;;;12.03;100.00;101432.03;5059011;28;20032;-77
2022/09/18 07:00:43;;;;;;;0.00;0.00;;;;;;;12.13;100.00;101424.13;5048563;28;20041;-76
2022/09/18 07:03:09;;;;;;;0.00;0.00;;;;;;;11.90;100.00;101405.16;5053118;28;20458;-75
2022/09/18 07:05:39;;;;;;;0.10;0.10;;;;;;;12.21;100.00;101435.19;5050226;28;20567;-75
2022/09/18 07:08:05;;;;;;;0.08;0.08;;;;;;;11.88;100.00;101382.88;5060089;28;20036;-74
2022/09/18 07:10:30;;;;;;;0.10;0.10;;;;;;;12.20;100.00;101424.53;5053276;28;20035;-74
2022/09/18 07:12:57;;;;;;;0.00;0.00;;;;;;;12.21;100.00;101434.31;5059197;28;20028;-75
2022/09/18 07:15:22;;;;;;;0.10;0.10;;;;;;;12.26;100.00;101443.78;5057406;28;20039;-76
2022/09/18 07:17:48;;;;;;;0.10;0.10;;;;;;;12.12;100.00;101436.75;5063761;28;20405;-77
2022/09/18 07:20:13;;;;;;;0.10;0.10;;;;;;;12.07;100.00;101420.06;5055029;28;20024;-75
2022/09/18 07:22:39;;;;;;;0.08;0.08;;;;;;;12.23;100.00;101440.44;5052396;28;20028;-74
2022/09/18 07:25:05;;;;;;;0.10;0.10;;;;;;;12.23;100.00;101422.47;5050654;28;20792;-75
2022/09/18 07:27:31;;;;;;;0.00;0.00;;;;;;;12.39;100.00;101426.69;5059938;28;22731;-73
2022/09/18 07:29:57;;;;;;;0.10;0.10;;;;;;;12.43;100.00;101423.66;5054424;28;20093;-75
2022/09/18 07:32:23;;;;;;;0.00;0.00;;;;;;;12.55;100.00;101429.06;5054395;28;20048;-77
2022/09/18 07:34:48;;;;;;;0.00;0.00;;;;;;;12.66;100.00;101428.22;5054258;28;20028;-71
2022/09/18 07:37:14;;;;;;;0.05;0.05;;;;;;;12.39;100.00;101384.47;5058098;28;20470;-74
2022/09/18 07:39:40;;;;;;;0.10;0.10;;;;;;;12.48;100.00;101388.28;5055634;28;20135;-76
2022/09/18 07:42:05;;;;;;;0.00;0.00;;;;;;;12.65;100.00;101419.31;5053270;28;20038;-74
2022/09/18 07:44:33;;;;;;;0.00;0.00;;;;;;;12.57;100.00;101413.63;5054926;28;20062;-76
2022/09/18 07:46:58;;;;;;;0.08;0.08;;;;;;;12.66;100.00;101418.31;5055282;28;20052;-74
2022/09/18 07:49:23;;;;;;;0.10;0.10;;;;;;;12.63;100.00;101418.56;5054509;28;20108;-73
2022/09/18 07:51:49;;;;;;;0.00;0.00;;;;;;;12.55;100.00;101419.16;5052818;28;20024;-74
2022/09/18 07:54:14;;;;;;;0.00;0.00;;;;;;;12.53;100.00;101431.88;5054363;28;20024;-75
2022/09/18 07:56:39;;;;;;;0.10;0.10;;;;;;;12.49;100.00;101433.09;5056840;28;20456;-74
2022/09/18 07:59:05;;;;;;;0.15;0.15;;;;;;;12.42;100.00;101427.31;5064447;28;20390;-75
2022/09/18 08:01:32;;;;;;;0.10;0.10;;;;;;;12.40;100.00;101417.63;5070973;28;20043;-72
2022/09/18 08:03:58;;;;;;;0.00;0.00;;;;;;;12.54;100.00;101408.50;5076423;28;20139;-73
2022/09/18 08:06:23;;;;;;;0.08;0.08;;;;;;;12.54;100.00;101412.06;5073986;28;20032;-75
2022/09/18 08:08:48;;;;;;;0.10;0.10;;;;;;;12.36;100.00;101394.59;5078930;28;20090;-75
2022/09/18 08:11:14;;;;;;;0.10;0.10;;;;;;;12.57;100.00;101419.03;5075021;28;20031;-72
2022/09/18 08:13:39;;;;;;;0.10;0.10;;;;;;;12.48;100.00;101392.78;5080046;28;20032;-73
2022/09/18 08:16:04;;;;;;;0.00;0.00;;;;;;;12.83;100.00;101422.41;5076969;28;20083;-72
2022/09/18 08:18:30;;;;;;;0.00;0.00;;;;;;;12.93;100.00;101433.31;5073118;28;20027;-72
2022/09/18 08:20:56;;;;;;;0.10;0.10;;;;;;;12.91;100.00;101413.72;5075982;28;20160;-72
2022/09/18 08:23:21;;;;;;;0.00;0.00;;;;;;;13.12;100.00;101426.47;5080460;28;20028;-72
2022/09/18 08:25:47;;;;;;;0.10;0.10;;;;;;;13.18;100.00;101413.34;5076230;28;20528;-71
2022/09/18 08:28:12;;;;;;;0.08;0.08;;;;;;;13.38;100.00;101423.53;5078042;28;20469;-72
2022/09/18 08:30:38;;;;;;;0.10;0.10;;;;;;;13.40;100.00;101422.41;5073725;28;20059;-74
2022/09/18 08:33:05;;;;;;;0.10;0.10;;;;;;;13.46;100.00;101416.56;5077089;28;20064;-72
2022/09/18 08:35:30;;;;;;;0.10;0.10;;;;;;;13.52;100.00;101423.28;5077334;28;20028;-72
2022/09/18 08:37:57;;;;;;;0.00;0.00;;;;;;;13.43;100.00;101400.59;5076190;28;20511;-73
2022/09/18 08:40:36;;;;;;;0.00;0.00;;;;;;;13.60;99.03;101422.69;5069176;28;20573;-73
2022/09/18 08:43:18;;;;;;;0.00;0.00;;;;;;;13.74;99.93;101424.25;5074119;28;20032;-72
2022/09/18 08:45:59;;;;;;;0.00;0.00;;;;;;;13.69;98.03;101418.38;5076281;28;20039;-74
2022/09/18 08:48:32;;;;;;;0.10;0.10;;;;;;;13.94;98.39;101436.06;5075123;28;20032;-72
2022/09/18 08:51:03;;;;;;;0.00;0.00;;;;;;;13.92;98.28;101398.44;5072584;28;20027;-72
2022/09/18 08:53:39;;;;;;;0.10;0.10;;;;;;;14.01;98.84;101383.28;5072023;28;20042;-71
2022/09/18 08:56:11;;;;;;;0.10;0.10;;;;;;;14.42;99.03;101418.59;5076020;28;20404;-73
2022/09/18 08:58:43;;;;;;;0.00;0.00;;;;;;;14.53;97.42;101414.97;5077292;28;20051;-74
2022/09/18 09:01:14;;;;;;;0.10;0.10;;;;;;;14.52;97.09;101413.25;5077281;28;20032;-75
2022/09/18 09:04:03;;;;;;;0.00;0.00;;;;;;;14.45;95.39;101410.22;5071852;28;20499;-75
2022/09/18 09:06:57;;;;;;;0.00;0.00;;;;;;;14.39;95.83;101411.63;5074630;28;20036;-76
2022/09/18 09:09:48;;;;;;;0.00;0.00;;;;;;;14.50;95.83;101417.94;5076417;28;20059;-76
2022/09/18 09:12:33;;;;;;;0.10;0.10;;;;;;;14.53;94.90;101413.13;5076908;28;20521;-76
2022/09/18 09:15:21;;;;;;;0.08;0.08;;;;;;;14.40;94.45;101415.16;5075855;28;20452;-73
2022/09/18 09:18:01;;;;;;;0.05;0.05;;;;;;;14.24;95.34;101415.59;5076131;28;20309;-76
2022/09/18 09:20:44;;;;;;;0.00;0.00;;;;;;;13.98;96.57;101398.91;5081484;28;20061;-75
2022/09/18 09:23:29;;;;;;;0.10;0.10;;;;;;;13.94;96.84;101387.50;5080854;28;20032;-74
2022/09/18 09:26:05;;;;;;;0.10;0.10;;;;;;;13.79;99.58;101411.22;5078929;28;20028;-76
2022/09/18 09:28:48;;;;;;;0.03;0.03;;;;;;;13.41;98.10;101380.16;5078931;28;20028;-74
2022/09/18 09:31:16;;;;;;;0.00;0.00;;;;;;;13.20;100.00;101395.22;5075561;28;20038;-75
2022/09/18 09:33:48;;;;;;;0.05;0.05;;;;;;;13.28;100.00;101399.13;5077844;28;20106;-74
2022/09/18 09:36:15;;;;;;;0.00;0.00;;;;;;;13.33;100.00;101391.53;5074620;28;20571;-74
2022/09/18 09:38:50;;;;;;;0.08;0.08;;;;;;;13.35;100.00;101408.44;5078028;28;20044;-73
2022/09/18 09:41:33;;;;;;;0.00;0.00;;;;;;;13.28;100.00;101421.56;5075685;28;20024;-73
2022/09/18 09:44:19;;;;;;;0.10;0.10;;;;;;;13.33;100.00;101415.81;5080358;28;20031;-75
2022/09/18 09:47:17;;;;;;;0.00;0.00;;;;;;;13.39;100.00;101409.06;5077301;28;20035;-74
2022/09/18 09:50:04;;;;;;;0.10;0.10;;;;;;;13.55;100.00;101404.16;5072356;28;20035;-74
2022/09/18 09:52:30;;;;;;;0.10;0.10;;;;;;;13.76;100.00;101403.41;5079382;28;20032;-75
2022/09/18 09:54:59;;;;;;;0.10;0.10;;;;;;;13.92;100.00;101392.16;5079175;28;20414;-73
2022/09/18 09:57:44;;;;;;;0.00;0.00;;;;;;;13.95;100.00;101386.50;5085061;28;20077;-75
2022/09/18 10:00:16;;;;;;;0.10;0.10;;;;;;;13.70;99.36;101388.53;5091507;28;20032;-73
2022/09/18 10:03:19;;;;;;;0.10;0.10;;;;;;;13.76;98.94;101392.59;5064128;28;20032;-80
2022/09/18 10:05:52;;;;;;;0.00;0.00;;;;;;;13.75;100.00;101399.81;5080813;28;20040;-76
2022/09/18 10:08:53;;;;;;;0.00;0.00;;;;;;;13.44;100.00;101405.03;5075752;28;20067;-74
2022/09/18 10:11:18;;;;;;;0.10;0.10;;;;;;;13.32;100.00;101403.31;5056675;28;20370;-70
2022/09/18 10:13:49;;;;;;;0.00;0.00;;;;;;;12.96;100.00;101418.72;5076954;28;20577;-72
2022/09/18 10:16:21;;;;;;;0.10;0.10;;;;;;;12.87;100.00;101407.69;5077255;28;20024;-72
2022/09/18 10:18:48;;;;;;;0.00;0.00;;;;;;;12.74;100.00;101407.78;5069885;28;20482;-73
2022/09/18 10:21:19;;;;;;;0.00;0.00;;;;;;;12.73;100.00;101402.53;5078326;28;20055;-72
2022/09/18 10:23:55;;;;;;;0.10;0.10;;;;;;;12.78;100.00;101408.44;5077713;28;20035;-73
2022/09/18 10:26:32;;;;;;;0.10;0.10;;;;;;;12.83;100.00;101406.25;5075383;28;20502;-75
2022/09/18 10:28:57;;;;;;;0.00;0.00;;;;;;;12.77;100.00;101412.09;5078411;28;20028;-71
2022/09/18 10:31:49;;;;;;;0.10;0.10;;;;;;;12.61;100.00;101425.91;5073512;28;20109;-73
2022/09/18 10:34:36;;;;;;;0.05;0.05;;;;;;;12.32;100.00;101429.00;5076763;28;20540;-71
2022/09/18 10:37:01;;;;;;;0.00;0.00;;;;;;;12.28;100.00;101436.44;5073292;28;20033;-72
2022/09/18 10:39:30;;;;;;;0.10;0.10;;;;;;;12.22;100.00;101414.50;5080334;28;20034;-72
2022/09/18 10:41:59;;;;;;;0.10;0.10;;;;;;;12.23;100.00;101421.59;5077181;28;20024;-72
2022/09/18 10:44:29;;;;;;;0.10;0.10;;;;;;;12.29;100.00;101426.53;5061509;28;20032;-72
2022/09/18 10:46:56;;;;;;;0.10;0.10;;;;;;;12.23;100.00;101418.91;5078193;28;20036;-72
2022/09/18 10:49:28;;;;;;;0.00;0.00;;;;;;;12.28;100.00;101420.31;5076094;28;20031;-71
2022/09/18 10:52:30;;;;;;;0.00;0.00;;;;;;;12.42;100.00;101424.63;5080851;28;20366;-72
2022/09/18 10:55:00;;;;;;;0.08;0.08;;;;;;;12.43;100.00;101412.88;5076761;28;21245;-75
2022/09/18 10:57:27;;;;;;;0.00;0.00;;;;;;;12.64;100.00;101416.72;5079390;28;20039;-73
2022/09/18 10:59:52;;;;;;;0.10;0.10;;;;;;;12.75;100.00;101414.06;5070077;28;20142;-74
2022/09/18 11:02:19;;;;;;;0.10;0.10;;;;;;;12.86;100.00;101410.50;5072743;28;20034;-74
2022/09/18 11:04:48;;;;;;;0.10;0.10;;;;;;;12.99;100.00;101408.56;5069252;28;20475;-75
2022/09/18 11:07:13;;;;;;;0.10;0.10;;;;;;;13.04;100.00;101406.34;5072167;28;20519;-75
2022/09/18 11:09:39;;;;;;;0.05;0.05;;;;;;;13.25;100.00;101415.56;5076466;28;20040;-75
2022/09/18 11:12:14;;;;;;;0.00;0.00;;;;;;;13.35;100.00;101393.13;5065042;28;20016;-74
2022/09/18 11:14:43;;;;;;;0.10;0.10;;;;;;;13.53;100.00;101410.66;5076029;28;20465;-76
2022/09/18 11:17:37;;;;;;;0.10;0.10;;;;;;;13.67;100.00;101407.69;5074013;28;20024;-75
2022/09/18 11:20:04;;;;;;;0.10;0.10;;;;;;;13.76;100.00;101409.63;5078057;28;20032;-76
2022/09/18 11:22:34;;;;;;;0.03;0.03;;;;;;;13.68;100.00;101411.25;5073019;28;20327;-77
2022/09/18 11:25:16;;;;;;;0.10;0.10;;;;;;;13.58;100.00;101412.00;5074688;28;21542;-76
2022/09/18 11:27:45;;;;;;;0.10;0.10;;;;;;;13.47;100.00;101414.72;5076928;28;20060;-76
2022/09/18 11:30:18;;;;;;;0.00;0.00;;;;;;;13.44;100.00;101404.19;5068817;28;20028;-77